Time;durP1;ratioP1;P1;durP2;ratioP2;P2;SDS_P1;SDS_P2;PMS_P1;PMS_P2;Temp;Humidity;BMP_temperature;BMP_pressure;BME280_temperature;BME280_humidity;BME280_pressure;Samples;Min_cycle;Max_cycle;Signal;HPM_P1;HPM_P2
2022/01/22 00:00:48;;;;;;;44.90;40.50;;;4.20;99.90;;;;;;5051511;28;20822;-70
2022/01/22 00:03:16;;;;;;;44.07;39.27;;;4.20;99.90;;;;;;5061222;28;20508;-69
2022/01/22 00:05:43;;;;;;;54.63;42.10;;;4.20;99.90;;;;;;5052186;28;20462;-69
2022/01/22 00:08:10;;;;;;;45.27;40.37;;;4.10;99.90;;;;;;5057661;28;20497;-70
2022/01/22 00:10:41;;;;;;;45.50;40.67;;;4.20;99.90;;;;;;5054499;28;20514;-70
2022/01/22 00:14:23;;;;;;;49.43;38.57;;;4.10;99.90;;;;;;5055861;28;20490;-71
2022/01/22 00:15:56;;;;;;;58.40;42.17;;;4.10;99.90;;;;;;5049444;28;20781;-70
2022/01/22 00:18:25;;;;;;;45.47;40.63;;;4.10;99.90;;;;;;5057072;28;20452;-70
2022/01/22 00:20:52;;;;;;;47.20;38.80;;;4.20;99.90;;;;;;5055772;28;20451;-70
2022/01/22 00:23:20;;;;;;;46.73;41.57;;;4.20;99.90;;;;;;5056278;28;20460;-71
2022/01/22 00:25:47;;;;;;;45.93;41.00;;;4.20;99.90;;;;;;5053245;28;20549;-71
2022/01/22 00:28:15;;;;;;;43.47;38.87;;;4.20;99.90;;;;;;5057599;28;20921;-70
2022/01/22 00:30:41;;;;;;;41.60;37.20;;;4.20;99.90;;;;;;5053322;28;20463;-70
2022/01/22 00:33:09;;;;;;;49.10;40.20;;;4.20;99.90;;;;;;5046314;28;20460;-71
2022/01/22 00:35:38;;;;;;;46.33;38.90;;;4.10;99.90;;;;;;5054288;28;21033;-71
2022/01/22 00:38:05;;;;;;;41.90;37.43;;;4.10;99.90;;;;;;5056468;28;20460;-71
2022/01/22 00:40:32;;;;;;;51.53;39.70;;;4.20;99.90;;;;;;5058669;28;20491;-70
2022/01/22 00:43:00;;;;;;;48.80;39.53;;;4.20;99.90;;;;;;5050691;28;20482;-71
2022/01/22 00:45:26;;;;;;;66.60;38.30;;;4.20;99.90;;;;;;5052786;28;20879;-71
2022/01/22 00:47:54;;;;;;;52.33;38.87;;;4.20;99.90;;;;;;5053730;28;21019;-70
2022/01/22 00:50:23;;;;;;;47.40;39.10;;;4.20;99.90;;;;;;5050335;28;21017;-71
2022/01/22 00:52:52;;;;;;;49.23;37.00;;;4.20;99.90;;;;;;5060153;28;20455;-71
2022/01/22 00:55:19;;;;;;;42.03;35.00;;;4.20;99.90;;;;;;5057597;28;20463;-71
2022/01/22 00:57:46;;;;;;;41.10;36.70;;;4.20;99.90;;;;;;5056531;28;20463;-70
2022/01/22 01:00:15;;;;;;;41.50;34.63;;;4.20;99.90;;;;;;5053431;28;20475;-70
2022/01/22 01:02:43;;;;;;;41.53;37.30;;;4.10;99.90;;;;;;5054906;28;20486;-70
2022/01/22 01:05:12;;;;;;;52.40;41.20;;;4.20;99.90;;;;;;5056514;28;20491;-70
2022/01/22 01:07:39;;;;;;;51.03;41.80;;;4.10;99.90;;;;;;5054440;28;20471;-71
2022/01/22 01:10:10;;;;;;;52.77;42.53;;;4.10;99.90;;;;;;5050790;28;20490;-70
2022/01/22 01:12:39;;;;;;;51.33;45.23;;;4.00;99.90;;;;;;5054799;28;21012;-71
2022/01/22 01:15:18;;;;;;;55.53;46.43;;;4.00;99.90;;;;;;5052012;28;20482;-71
2022/01/22 01:34:25;;;;;;;51.20;46.10;;;3.90;99.90;;;;;;5053526;28;20778;-72
2022/01/22 01:36:53;;;;;;;58.43;46.90;;;3.90;99.90;;;;;;5061794;28;20740;-71
2022/01/22 01:39:25;;;;;;;69.53;48.10;;;3.90;99.90;;;;;;5058419;28;20462;-70
2022/01/22 01:41:58;;;;;;;59.07;46.70;;;3.90;99.90;;;;;;5060537;28;20969;-71
2022/01/22 01:44:25;;;;;;;57.87;49.70;;;4.00;99.90;;;;;;5057324;28;20517;-70
2022/01/22 01:46:56;;;;;;;66.70;49.90;;;4.00;99.90;;;;;;5056725;28;20920;-71
2022/01/22 01:49:24;;;;;;;54.63;48.77;;;4.00;99.90;;;;;;5059728;28;20519;-71
2022/01/22 01:51:52;;;;;;;56.70;50.90;;;4.00;99.90;;;;;;5060118;28;20490;-72
2022/01/22 01:54:33;;;;;;;57.57;51.47;;;4.00;99.90;;;;;;5064027;28;20455;-72
2022/01/22 01:59:49;;;;;;;58.17;50.63;;;4.00;99.90;;;;;;5055964;28;20517;-72
2022/01/22 02:02:16;;;;;;;52.33;47.33;;;4.00;99.90;;;;;;5053120;28;20455;-72
2022/01/22 02:04:44;;;;;;;53.83;48.43;;;4.00;99.90;;;;;;5062748;28;20546;-73
2022/01/22 02:07:11;;;;;;;50.63;44.33;;;4.10;99.90;;;;;;5056844;28;20870;-70
2022/01/22 02:09:40;;;;;;;48.87;43.70;;;4.10;99.90;;;;;;5054002;28;20482;-70
2022/01/22 02:12:15;;;;;;;41.60;38.60;;;4.00;99.90;;;;;;5055254;28;20499;-72
2022/01/22 02:25:43;;;;;;;33.03;31.13;;;4.00;99.90;;;;;;5049949;28;20466;-71
2022/01/22 02:28:11;;;;;;;34.90;32.90;;;4.10;99.90;;;;;;5051062;28;20480;-71
2022/01/22 02:30:42;;;;;;;34.40;32.40;;;4.10;99.90;;;;;;5048586;28;20465;-71
2022/01/22 02:33:21;;;;;;;34.90;32.90;;;4.10;99.90;;;;;;5053992;28;20479;-71
2022/01/22 02:35:53;;;;;;;33.63;31.63;;;4.10;99.90;;;;;;5053789;28;20460;-72
2022/01/22 02:38:31;;;;;;;34.03;32.03;;;4.10;99.90;;;;;;5056187;28;20467;-72
2022/01/22 02:40:57;;;;;;;34.13;32.13;;;4.20;99.90;;;;;;5046748;28;20473;-71
2022/01/22 02:43:25;;;;;;;33.20;31.30;;;4.20;99.90;;;;;;5055163;28;20464;-72
2022/01/22 02:45:54;;;;;;;32.73;30.83;;;4.10;99.90;;;;;;5058478;28;20454;-71
2022/01/22 02:48:21;;;;;;;32.70;30.80;;;4.20;99.90;;;;;;5055440;28;20583;-72
2022/01/22 02:50:48;;;;;;;33.30;31.37;;;4.10;99.90;;;;;;5055310;28;20568;-71
2022/01/22 02:53:15;;;;;;;32.43;30.53;;;4.10;99.90;;;;;;5052930;28;20463;-70
2022/01/22 02:55:45;;;;;;;36.90;34.73;;;4.10;99.90;;;;;;5051082;28;20980;-72
2022/01/22 02:58:12;;;;;;;31.87;29.97;;;4.10;99.90;;;;;;5055116;28;20466;-70
2022/01/22 03:00:39;;;;;;;33.13;31.20;;;4.10;99.90;;;;;;5053459;28;20461;-72
2022/01/22 03:03:07;;;;;;;33.73;31.73;;;4.10;99.90;;;;;;5057779;28;20475;-71
2022/01/22 03:05:35;;;;;;;38.07;35.60;;;4.10;99.90;;;;;;5055214;28;20973;-73
2022/01/22 03:08:07;;;;;;;33.13;31.13;;;4.20;99.90;;;;;;5058762;28;20494;-71
2022/01/22 03:10:34;;;;;;;34.37;32.30;;;4.20;99.90;;;;;;5043881;28;20518;-71
2022/01/22 03:18:50;;;;;;;34.37;32.27;;;4.20;99.90;;;;;;5055448;28;20489;-71
2022/01/22 03:21:36;;;;;;;33.97;31.97;;;4.20;99.90;;;;;;5059058;28;20461;-72
2022/01/22 03:29:36;;;;;;;32.57;30.60;;;4.20;99.90;;;;;;5045337;28;20531;-71
2022/01/22 03:32:04;;;;;;;33.20;31.20;;;4.20;99.90;;;;;;5049015;28;20916;-72
2022/01/22 03:34:37;;;;;;;33.07;31.07;;;4.20;99.90;;;;;;5053097;28;20460;-72
2022/01/22 03:37:04;;;;;;;32.53;30.60;;;4.20;99.90;;;;;;5051442;28;20876;-72
2022/01/22 03:39:32;;;;;;;30.57;28.73;;;4.20;99.90;;;;;;5051951;28;20483;-70
2022/01/22 03:41:59;;;;;;;31.73;29.83;;;4.20;99.90;;;;;;5052267;28;20487;-71
2022/01/22 03:44:25;;;;;;;31.23;29.33;;;4.20;99.90;;;;;;5060433;28;20572;-71
2022/01/22 03:46:54;;;;;;;31.80;29.90;;;4.10;99.90;;;;;;5062751;28;20462;-72
2022/01/22 03:49:21;;;;;;;31.60;29.70;;;4.20;99.90;;;;;;5050072;28;20499;-72
2022/01/22 03:51:48;;;;;;;31.60;29.70;;;4.10;99.90;;;;;;5056203;28;20969;-71
2022/01/22 03:54:15;;;;;;;31.57;29.67;;;4.10;99.90;;;;;;5052268;28;20463;-71
2022/01/22 03:56:45;;;;;;;31.70;29.80;;;4.10;99.90;;;;;;5058490;28;20504;-71
2022/01/22 03:59:14;;;;;;;31.40;29.50;;;4.10;99.90;;;;;;5051981;28;20463;-72
2022/01/22 04:04:33;;;;;;;30.67;28.77;;;4.10;99.90;;;;;;5045662;28;20990;-73
2022/01/22 04:07:30;;;;;;;30.97;29.07;;;4.10;99.90;;;;;;5055377;28;20950;-71
2022/01/22 04:09:58;;;;;;;31.50;29.60;;;4.20;99.90;;;;;;5054957;28;20581;-72
2022/01/22 04:12:34;;;;;;;31.20;29.30;;;4.20;99.90;;;;;;5054385;28;20545;-72
2022/01/22 04:15:04;;;;;;;31.30;29.40;;;4.20;99.90;;;;;;5045278;28;20468;-72
2022/01/22 04:24:49;;;;;;;29.33;27.53;;;4.20;99.90;;;;;;5053411;28;20462;-72
2022/01/22 04:26:04;;;;;;;31.73;29.83;;;4.20;99.90;;;;;;5052119;28;20505;-72
2022/01/22 04:28:31;;;;;;;31.53;29.63;;;4.20;99.90;;;;;;5055290;28;20988;-71
2022/01/22 04:30:59;;;;;;;34.10;32.10;;;4.20;99.90;;;;;;5049454;28;20455;-72
2022/01/22 04:33:26;;;;;;;32.57;30.57;;;4.30;99.90;;;;;;5056988;28;20865;-72
2022/01/22 04:35:55;;;;;;;31.80;29.90;;;4.30;99.90;;;;;;5056390;28;20494;-72
2022/01/22 04:38:22;;;;;;;32.20;30.30;;;4.30;99.90;;;;;;5052116;28;20989;-72
2022/01/22 04:40:48;;;;;;;31.80;29.90;;;4.20;99.90;;;;;;5052117;28;20471;-71
2022/01/22 04:43:15;;;;;;;34.70;32.63;;;4.30;99.90;;;;;;5055046;28;20919;-72
2022/01/22 04:45:53;;;;;;;31.70;29.80;;;4.30;99.90;;;;;;5053805;28;20474;-71
2022/01/22 04:48:42;;;;;;;31.63;29.73;;;4.30;99.90;;;;;;5057828;28;20483;-72
2022/01/22 04:56:39;;;;;;;32.83;30.83;;;4.40;99.90;;;;;;5062740;28;20459;-71
2022/01/22 04:59:06;;;;;;;31.53;29.63;;;4.40;99.90;;;;;;5053955;28;20463;-72
2022/01/22 05:01:33;;;;;;;30.50;28.70;;;4.40;99.90;;;;;;5032159;28;20846;-71
2022/01/22 05:04:00;;;;;;;30.17;28.37;;;4.40;99.90;;;;;;5032411;28;20497;-72
2022/01/22 05:06:29;;;;;;;29.90;28.10;;;4.50;99.90;;;;;;5033695;28;20463;-71
2022/01/22 05:08:57;;;;;;;29.43;27.63;;;4.50;99.90;;;;;;5032217;28;20827;-72
2022/01/22 05:11:24;;;;;;;29.23;27.43;;;4.40;99.90;;;;;;5033340;28;20469;-71
2022/01/22 05:13:51;;;;;;;28.57;26.87;;;4.50;99.90;;;;;;5034498;28;20463;-72
2022/01/22 05:16:18;;;;;;;30.30;28.50;;;4.50;99.90;;;;;;5030044;28;20478;-71
2022/01/22 05:18:52;;;;;;;31.00;29.20;;;4.50;99.90;;;;;;5032204;28;20556;-71
2022/01/22 05:21:20;;;;;;;30.40;28.60;;;4.60;99.90;;;;;;5032794;28;20476;-72
2022/01/22 05:23:49;;;;;;;29.57;27.80;;;4.60;99.90;;;;;;5033381;28;20464;-72
2022/01/22 05:26:42;;;;;;;30.23;28.43;;;4.50;99.90;;;;;;5032974;28;20467;-72
2022/01/22 05:29:27;;;;;;;29.23;27.53;;;4.60;99.90;;;;;;5034244;28;21025;-71
2022/01/22 05:37:22;;;;;;;29.40;27.60;;;4.60;99.90;;;;;;5034348;28;20521;-72
2022/01/22 05:39:50;;;;;;;28.30;26.60;;;4.60;99.90;;;;;;5033376;28;20468;-72
2022/01/22 05:42:17;;;;;;;28.17;26.47;;;4.60;99.90;;;;;;5032918;28;20464;-72
2022/01/22 05:44:44;;;;;;;28.17;26.47;;;4.60;99.90;;;;;;5032814;28;20877;-72
2022/01/22 05:47:12;;;;;;;27.37;25.77;;;4.60;99.90;;;;;;5032286;28;20498;-71
2022/01/22 05:49:42;;;;;;;29.00;27.30;;;4.60;99.90;;;;;;5033515;28;20491;-73
2022/01/22 05:52:11;;;;;;;27.47;25.77;;;4.50;99.90;;;;;;5033542;28;20815;-71
2022/01/22 05:54:55;;;;;;;28.57;26.87;;;4.50;99.90;;;;;;5032717;28;21396;-71
2022/01/22 06:00:09;;;;;;;27.87;26.17;;;4.60;99.90;;;;;;5033833;28;20528;-72
2022/01/22 06:02:35;;;;;;;27.90;26.20;;;4.60;99.90;;;;;;5030054;28;21012;-72
2022/01/22 06:05:02;;;;;;;28.07;26.37;;;4.60;99.90;;;;;;5032139;28;21021;-71
2022/01/22 06:07:29;;;;;;;28.67;26.97;;;4.60;99.90;;;;;;5033172;28;20460;-71
2022/01/22 06:10:14;;;;;;;28.50;26.80;;;4.60;99.90;;;;;;5032949;28;20490;-71
2022/01/22 06:12:46;;;;;;;28.77;27.07;;;4.60;99.90;;;;;;5033062;28;20491;-72
2022/01/22 06:15:14;;;;;;;26.67;25.07;;;4.70;99.90;;;;;;5032936;28;20595;-71
2022/01/22 06:17:41;;;;;;;25.77;24.27;;;4.60;99.90;;;;;;5031925;28;21306;-71
2022/01/22 06:20:12;;;;;;;84.77;57.80;;;4.70;99.90;;;;;;5032156;28;20456;-72
2022/01/22 06:22:41;;;;;;;81.93;61.17;;;4.70;99.90;;;;;;5041639;28;20488;-72
2022/01/22 06:25:09;;;;;;;86.77;58.83;;;4.70;99.90;;;;;;5054022;28;20660;-71
2022/01/22 06:27:36;;;;;;;83.00;58.00;;;4.70;99.90;;;;;;5057151;28;20468;-72
2022/01/22 06:30:06;;;;;;;75.90;56.33;;;4.70;99.90;;;;;;5046139;28;20488;-71
2022/01/22 06:32:33;;;;;;;91.53;59.17;;;4.70;99.90;;;;;;5031299;28;21210;-72
2022/01/22 06:34:59;;;;;;;94.03;61.20;;;4.60;99.90;;;;;;5032149;28;20459;-72
2022/01/22 06:37:26;;;;;;;79.67;57.40;;;4.70;99.90;;;;;;5033295;28;20836;-72
2022/01/22 06:41:44;;;;;;;78.53;55.50;;;4.60;99.90;;;;;;5031754;28;21143;-72
2022/01/22 06:42:50;;;;;;;79.73;57.87;;;4.70;99.90;;;;;;5032260;28;20442;-72
2022/01/22 06:45:18;;;;;;;85.60;58.20;;;4.60;99.90;;;;;;5032369;28;20768;-71
2022/01/22 06:47:45;;;;;;;74.00;56.37;;;4.70;99.90;;;;;;5029975;28;20447;-71
2022/01/22 06:50:12;;;;;;;80.97;58.53;;;4.50;99.90;;;;;;5031683;28;20499;-72
2022/01/22 06:52:40;;;;;;;87.27;59.97;;;4.50;99.90;;;;;;5031002;28;20977;-72
2022/01/22 06:55:08;;;;;;;84.87;56.77;;;4.60;99.90;;;;;;5045840;28;20842;-72
2022/01/22 06:57:35;;;;;;;77.00;55.50;;;4.60;99.90;;;;;;5050049;28;20892;-72
2022/01/22 07:00:03;;;;;;;79.97;57.43;;;4.70;99.90;;;;;;5056206;28;20472;-72
2022/01/22 07:02:31;;;;;;;80.80;57.03;;;4.70;99.90;;;;;;5039961;28;20730;-71
2022/01/22 07:04:58;;;;;;;69.93;55.90;;;4.80;99.90;;;;;;5053425;28;20478;-72
2022/01/22 07:07:25;;;;;;;96.63;57.20;;;4.80;99.90;;;;;;5046863;28;20463;-71
2022/01/22 07:09:52;;;;;;;72.17;57.20;;;4.80;99.90;;;;;;5055063;28;20509;-71
2022/01/22 07:12:19;;;;;;;85.87;57.63;;;4.80;99.90;;;;;;5027541;28;20513;-72
2022/01/22 07:14:49;;;;;;;73.50;55.97;;;4.80;99.90;;;;;;5030994;28;20466;-73
2022/01/22 07:17:16;;;;;;;90.70;59.30;;;4.80;99.90;;;;;;5026838;28;20462;-71
2022/01/22 07:19:44;;;;;;;82.40;57.87;;;4.80;99.90;;;;;;5029840;28;20483;-72
2022/01/22 07:22:31;;;;;;;76.90;55.10;;;4.80;99.90;;;;;;5029768;28;21019;-71
2022/01/22 07:24:58;;;;;;;79.57;57.40;;;4.70;99.90;;;;;;5028552;28;20452;-71
2022/01/22 07:27:25;;;;;;;77.00;56.57;;;4.80;99.90;;;;;;5028214;28;20843;-71
2022/01/22 07:29:52;;;;;;;84.93;61.07;;;4.80;99.90;;;;;;5029981;28;20612;-72
2022/01/22 07:32:27;;;;;;;91.43;58.33;;;4.80;99.90;;;;;;5028874;28;20463;-71
2022/01/22 07:34:56;;;;;;;79.97;58.40;;;4.80;99.90;;;;;;5030435;28;20961;-72
2022/01/22 07:37:23;;;;;;;78.27;59.90;;;4.90;99.90;;;;;;5030100;28;20460;-72
2022/01/22 07:39:50;;;;;;;86.10;63.13;;;4.80;99.90;;;;;;5029090;28;20621;-71
2022/01/22 07:42:17;;;;;;;95.70;62.57;;;4.80;99.90;;;;;;5029076;28;20860;-72
2022/01/22 07:44:44;;;;;;;88.00;60.50;;;4.90;99.90;;;;;;5018850;28;20464;-69
2022/01/22 07:47:12;;;;;;;91.87;63.73;;;4.80;99.90;;;;;;5027503;28;21377;-69
2022/01/22 07:49:39;;;;;;;91.33;61.10;;;4.90;99.90;;;;;;5029400;28;21528;-69
2022/01/22 07:52:08;;;;;;;99.03;65.63;;;4.80;99.90;;;;;;5027647;28;20713;-70
2022/01/22 07:54:35;;;;;;;97.47;63.10;;;4.80;99.90;;;;;;5027319;28;20556;-70
2022/01/22 07:57:02;;;;;;;83.13;60.57;;;4.90;99.90;;;;;;5023071;28;20467;-69
2022/01/22 07:59:30;;;;;;;92.57;66.60;;;4.80;99.90;;;;;;5023336;28;20472;-69
2022/01/22 08:01:57;;;;;;;86.60;66.53;;;4.90;99.90;;;;;;5023906;28;20476;-69
2022/01/22 08:04:24;;;;;;;95.80;69.83;;;4.90;99.90;;;;;;5025374;28;20580;-70
2022/01/22 08:06:52;;;;;;;95.73;67.13;;;5.00;99.90;;;;;;5026888;28;20521;-70
2022/01/22 08:09:21;;;;;;;96.27;68.70;;;4.90;99.90;;;;;;5027478;28;21153;-69
2022/01/22 08:11:48;;;;;;;93.10;69.77;;;5.00;99.90;;;;;;5028672;28;20500;-70
2022/01/22 08:14:15;;;;;;;98.03;70.33;;;5.00;99.90;;;;;;5027342;28;20476;-71
2022/01/22 08:16:43;;;;;;;94.40;69.43;;;5.00;99.90;;;;;;5027248;28;20961;-71
2022/01/22 08:19:11;;;;;;;102.67;71.40;;;5.00;99.90;;;;;;5027976;28;20468;-71
2022/01/22 08:21:38;;;;;;;92.80;68.20;;;5.10;99.90;;;;;;5046476;28;20787;-71
2022/01/22 08:24:05;;;;;;;107.23;71.20;;;5.00;99.90;;;;;;5050971;28;20537;-71
2022/01/22 08:26:38;;;;;;;82.83;66.70;;;5.00;99.90;;;;;;5033518;28;22499;-69
2022/01/22 08:29:05;;;;;;;78.20;64.20;;;5.00;99.90;;;;;;5033291;28;20496;-71
2022/01/22 08:31:48;;;;;;;85.87;64.90;;;5.10;99.90;;;;;;5032186;28;20478;-70
2022/01/22 08:36:59;;;;;;;78.57;63.00;;;5.00;99.90;;;;;;5031602;28;20466;-71
2022/01/22 08:39:27;;;;;;;91.70;65.97;;;5.00;99.90;;;;;;5033449;28;20553;-72
2022/01/22 08:41:56;;;;;;;86.63;61.83;;;5.10;99.90;;;;;;5033098;28;20476;-71
2022/01/22 08:44:23;;;;;;;49.13;44.30;;;5.10;99.90;;;;;;5033272;28;20475;-70
2022/01/22 08:46:50;;;;;;;38.30;35.80;;;5.10;99.90;;;;;;5032531;28;20485;-69
2022/01/22 08:49:17;;;;;;;77.87;64.20;;;5.10;99.90;;;;;;5032513;28;20913;-70
2022/01/22 08:51:44;;;;;;;84.63;70.43;;;5.10;99.90;;;;;;5031613;28;20562;-70
2022/01/22 08:54:12;;;;;;;86.63;69.03;;;5.20;99.90;;;;;;5031842;28;20467;-71
2022/01/22 08:56:40;;;;;;;75.87;66.93;;;5.30;99.90;;;;;;5031687;28;20610;-68
2022/01/22 08:59:09;;;;;;;86.07;67.17;;;5.30;99.90;;;;;;5032601;28;20469;-71
2022/01/22 09:01:39;;;;;;;80.20;67.03;;;5.30;99.90;;;;;;5032942;28;20737;-70
2022/01/22 09:04:06;;;;;;;90.10;68.07;;;5.30;99.90;;;;;;5032807;28;20518;-69
2022/01/22 09:06:34;;;;;;;93.47;68.07;;;5.30;99.90;;;;;;5029352;28;20476;-71
2022/01/22 09:09:08;;;;;;;86.33;66.67;;;5.40;99.90;;;;;;5028840;28;20461;-71
2022/01/22 09:11:35;;;;;;;81.80;65.73;;;5.40;99.90;;;;;;5030828;28;21033;-71
2022/01/22 09:14:04;;;;;;;92.50;67.40;;;5.40;99.90;;;;;;5032797;28;20810;-71
2022/01/22 09:16:33;;;;;;;97.07;64.47;;;5.40;99.90;;;;;;5031945;28;20486;-69
2022/01/22 09:19:06;;;;;;;92.43;66.67;;;5.40;99.90;;;;;;5032890;28;20591;-71
2022/01/22 09:21:33;;;;;;;84.97;64.37;;;5.40;99.90;;;;;;5032895;28;20551;-70
2022/01/22 09:24:00;;;;;;;87.80;64.33;;;5.50;99.90;;;;;;5032753;28;20785;-70
2022/01/22 09:26:28;;;;;;;83.50;64.53;;;5.50;99.90;;;;;;5029731;28;20477;-70
2022/01/22 09:28:58;;;;;;;90.93;64.73;;;5.50;99.90;;;;;;5032420;28;20471;-70
2022/01/22 09:31:25;;;;;;;92.03;67.13;;;5.50;99.90;;;;;;5030751;28;20495;-70
2022/01/22 09:33:55;;;;;;;89.77;64.37;;;5.50;99.90;;;;;;5032075;28;20541;-71
2022/01/22 09:36:22;;;;;;;87.63;65.20;;;5.60;99.90;;;;;;5032140;28;20462;-70
2022/01/22 09:38:49;;;;;;;77.27;62.73;;;5.60;99.90;;;;;;5031981;28;20560;-71
2022/01/22 09:41:17;;;;;;;91.93;60.63;;;5.60;99.90;;;;;;5031330;28;20475;-70
2022/01/22 09:43:44;;;;;;;85.77;63.47;;;5.60;99.90;;;;;;5029461;28;20908;-70
2022/01/22 09:46:12;;;;;;;83.13;62.93;;;5.70;99.90;;;;;;5031417;28;21124;-71
2022/01/22 09:48:41;;;;;;;88.50;67.47;;;5.70;99.90;;;;;;5030578;28;20460;-70
2022/01/22 09:51:09;;;;;;;77.90;65.33;;;5.70;99.90;;;;;;5030433;28;21127;-71
2022/01/22 09:53:36;;;;;;;87.03;62.40;;;5.70;99.90;;;;;;5030565;28;20939;-72
2022/01/22 09:56:04;;;;;;;91.80;64.93;;;5.90;99.90;;;;;;5028626;28;20958;-71
2022/01/22 09:58:31;;;;;;;81.43;64.70;;;5.80;99.90;;;;;;5028102;28;22003;-70
2022/01/22 10:01:19;;;;;;;86.93;64.67;;;5.90;99.90;;;;;;5028644;28;20468;-71
2022/01/22 10:03:46;;;;;;;76.97;60.60;;;5.90;99.90;;;;;;5031412;28;20584;-71
2022/01/22 10:06:19;;;;;;;90.53;61.70;;;6.10;99.90;;;;;;5031319;28;20787;-71
2022/01/22 10:08:46;;;;;;;77.87;57.50;;;6.00;99.90;;;;;;5031758;28;20475;-72
2022/01/22 10:11:18;;;;;;;70.63;56.80;;;5.90;99.90;;;;;;5029325;28;20537;-71
2022/01/22 10:13:47;;;;;;;84.10;59.47;;;5.90;99.90;;;;;;5030815;28;21480;-72
2022/01/22 10:16:25;;;;;;;77.37;57.00;;;6.00;99.90;;;;;;5030571;28;20466;-72
2022/01/22 10:19:14;;;;;;;77.70;54.70;;;6.10;99.90;;;;;;5026946;28;20466;-72
2022/01/22 10:21:44;;;;;;;77.60;55.43;;;6.40;99.90;;;;;;5030051;28;20884;-71
2022/01/22 10:24:27;;;;;;;82.27;58.67;;;6.30;99.90;;;;;;5031059;28;20972;-72
2022/01/22 10:27:18;;;;;;;76.93;57.07;;;6.40;99.90;;;;;;5030281;28;20973;-72
2022/01/22 10:29:51;;;;;;;76.33;52.67;;;6.30;99.90;;;;;;5031438;28;20803;-72
2022/01/22 10:32:20;;;;;;;75.03;55.73;;;6.30;99.90;;;;;;5030668;28;20468;-72
2022/01/22 10:34:47;;;;;;;81.13;58.40;;;6.40;99.90;;;;;;5028366;28;20549;-71
2022/01/22 10:37:28;;;;;;;70.53;55.40;;;6.40;99.90;;;;;;5029657;28;20838;-72
2022/01/22 10:40:21;;;;;;;69.10;56.90;;;6.30;99.90;;;;;;5031248;28;20463;-72
2022/01/22 10:42:49;;;;;;;84.83;55.30;;;6.30;99.90;;;;;;5029712;28;21151;-71
2022/01/22 10:45:23;;;;;;;77.00;55.00;;;6.20;99.90;;;;;;5030012;28;20459;-71
2022/01/22 10:47:50;;;;;;;82.33;56.97;;;6.30;99.90;;;;;;5030964;28;20474;-72
2022/01/22 10:50:20;;;;;;;77.77;54.87;;;6.30;99.90;;;;;;5029893;28;20500;-72
2022/01/22 10:52:50;;;;;;;89.10;58.07;;;6.40;99.90;;;;;;5030610;28;20460;-72
2022/01/22 10:55:17;;;;;;;84.43;58.13;;;6.40;99.90;;;;;;5030051;28;20481;-71
2022/01/22 10:58:05;;;;;;;85.03;57.43;;;6.30;99.90;;;;;;5030317;28;20468;-71
2022/01/22 11:00:32;;;;;;;78.97;55.20;;;6.30;99.90;;;;;;5027809;28;20913;-72
2022/01/22 11:02:59;;;;;;;83.77;56.27;;;6.30;99.90;;;;;;5027347;28;20493;-72
2022/01/22 11:05:37;;;;;;;63.57;52.77;;;6.30;99.90;;;;;;5030878;28;20471;-71
2022/01/22 11:08:13;;;;;;;80.47;54.53;;;6.10;99.90;;;;;;5030434;28;20459;-71
2022/01/22 11:10:41;;;;;;;78.87;55.73;;;6.20;99.90;;;;;;5029268;28;21033;-71
2022/01/22 11:13:08;;;;;;;76.33;56.23;;;6.20;99.90;;;;;;5030014;28;20484;-72
2022/01/22 11:15:36;;;;;;;87.63;55.57;;;6.20;99.90;;;;;;5029791;28;20468;-71
2022/01/22 11:18:04;;;;;;;69.10;56.40;;;6.30;99.90;;;;;;5030429;28;20473;-71
2022/01/22 11:20:32;;;;;;;86.40;56.77;;;6.20;99.90;;;;;;5031069;28;21711;-71
2022/01/22 11:23:00;;;;;;;85.77;54.70;;;6.30;99.90;;;;;;5030681;28;20495;-71
2022/01/22 11:25:29;;;;;;;82.70;54.90;;;6.20;99.90;;;;;;5030417;28;20996;-71
2022/01/22 11:27:56;;;;;;;81.10;54.00;;;6.30;99.90;;;;;;5030509;28;20466;-72
2022/01/22 11:30:25;;;;;;;80.53;54.10;;;6.20;99.90;;;;;;5039447;28;20493;-72
2022/01/22 11:32:55;;;;;;;87.70;56.40;;;6.20;99.90;;;;;;5050980;28;20503;-71
2022/01/22 11:35:27;;;;;;;83.87;54.17;;;6.10;99.90;;;;;;5052841;28;20467;-71
2022/01/22 11:38:00;;;;;;;90.97;57.90;;;6.20;99.90;;;;;;5036453;28;20475;-71
2022/01/22 11:40:32;;;;;;;83.53;54.80;;;6.20;99.90;;;;;;5030030;28;20459;-71
2022/01/22 11:43:04;;;;;;;74.17;52.57;;;6.30;99.90;;;;;;5027423;28;21494;-71
2022/01/22 11:45:33;;;;;;;79.70;53.30;;;6.20;99.90;;;;;;5051382;28;20474;-72
2022/01/22 11:48:14;;;;;;;79.00;55.10;;;6.30;99.90;;;;;;5058057;28;20465;-72
2022/01/22 11:50:43;;;;;;;76.50;54.47;;;6.30;99.90;;;;;;5049032;28;20472;-72
2022/01/22 11:53:23;;;;;;;68.93;49.80;;;6.40;99.90;;;;;;5053338;28;20474;-71
2022/01/22 11:56:21;;;;;;;80.43;54.03;;;6.40;99.90;;;;;;5034543;28;20467;-71
2022/01/22 11:59:23;;;;;;;71.93;49.93;;;6.40;99.90;;;;;;5032977;28;20465;-70
2022/01/22 12:01:56;;;;;;;75.07;48.60;;;6.40;99.90;;;;;;5034367;28;20972;-71
2022/01/22 12:04:24;;;;;;;76.53;51.93;;;6.50;99.90;;;;;;5033555;28;20496;-72
2022/01/22 12:07:17;;;;;;;83.27;52.83;;;6.50;99.90;;;;;;5033390;28;20482;-72
2022/01/22 12:09:53;;;;;;;85.13;51.37;;;6.50;99.90;;;;;;5033150;28;20464;-71
2022/01/22 12:15:13;;;;;;;71.70;49.97;;;6.60;99.90;;;;;;5033979;28;20463;-71
2022/01/22 12:18:11;;;;;;;68.20;49.23;;;6.60;99.90;;;;;;5033774;28;20471;-72
2022/01/22 12:23:52;;;;;;;67.20;48.60;;;6.70;99.90;;;;;;5033390;28;20527;-70
2022/01/22 12:26:41;;;;;;;66.23;47.60;;;6.60;99.90;;;;;;5033357;28;20449;-71
2022/01/22 12:29:42;;;;;;;64.63;47.30;;;6.70;99.90;;;;;;5033921;28;20463;-73
2022/01/22 12:32:18;;;;;;;69.77;48.63;;;6.70;99.90;;;;;;5029044;28;20596;-71
2022/01/22 12:34:56;;;;;;;63.60;48.63;;;6.70;99.90;;;;;;5028904;28;20557;-72
2022/01/22 12:37:25;;;;;;;74.10;49.03;;;6.70;99.90;;;;;;5031421;28;20816;-71
2022/01/22 12:39:54;;;;;;;72.73;49.80;;;6.70;99.90;;;;;;5028311;28;20656;-71
2022/01/22 12:42:30;;;;;;;69.87;49.97;;;6.70;99.90;;;;;;5030729;28;20974;-72
2022/01/22 12:44:59;;;;;;;79.40;48.97;;;6.70;99.90;;;;;;5032963;28;21077;-72
2022/01/22 12:47:28;;;;;;;68.67;46.87;;;6.60;99.90;;;;;;5032790;28;20458;-72
2022/01/22 12:50:00;;;;;;;68.97;49.80;;;6.60;99.90;;;;;;5032271;28;20493;-71
2022/01/22 12:52:28;;;;;;;65.23;48.80;;;6.70;99.90;;;;;;5032815;28;20497;-71
2022/01/22 12:54:58;;;;;;;75.83;51.20;;;6.80;99.90;;;;;;5033718;28;20474;-72
2022/01/22 12:57:27;;;;;;;72.50;49.63;;;6.70;99.90;;;;;;5033314;28;20454;-70
2022/01/22 13:00:05;;;;;;;72.13;48.10;;;6.70;99.90;;;;;;5033577;28;20745;-70
2022/01/22 13:02:42;;;;;;;68.30;47.70;;;6.70;99.90;;;;;;5033591;28;21316;-70
2022/01/22 13:05:11;;;;;;;76.23;51.47;;;6.60;99.90;;;;;;5031691;28;20473;-70
2022/01/22 13:07:39;;;;;;;82.97;52.20;;;6.70;99.90;;;;;;5033633;28;20807;-70
2022/01/22 13:10:08;;;;;;;80.77;49.07;;;6.70;99.90;;;;;;5033571;28;20465;-69
2022/01/22 13:12:37;;;;;;;73.03;50.97;;;6.50;99.90;;;;;;5032702;28;20507;-70
2022/01/22 13:15:05;;;;;;;71.97;52.60;;;6.60;99.90;;;;;;5033396;28;20481;-71
2022/01/22 13:17:34;;;;;;;78.20;53.13;;;6.60;99.90;;;;;;5032934;28;20477;-71
2022/01/22 13:20:02;;;;;;;71.03;51.10;;;6.70;99.90;;;;;;5034564;28;21089;-71
2022/01/22 13:22:33;;;;;;;68.33;50.70;;;6.60;99.90;;;;;;5046609;28;20463;-71
2022/01/22 13:25:07;;;;;;;69.30;52.57;;;6.60;99.90;;;;;;5054624;28;20460;-70
2022/01/22 13:27:34;;;;;;;70.80;53.97;;;6.70;99.90;;;;;;5044398;28;20520;-71
2022/01/22 13:30:01;;;;;;;82.70;53.00;;;6.70;99.90;;;;;;5028377;28;21015;-69
2022/01/22 13:32:48;;;;;;;81.60;53.97;;;6.60;99.90;;;;;;5028224;28;21020;-71
2022/01/22 13:35:27;;;;;;;69.33;50.93;;;6.70;99.90;;;;;;5029260;28;21019;-71
2022/01/22 13:49:15;;;;;;;79.33;51.30;;;6.70;99.90;;;;;;5030781;28;20523;-70
2022/01/22 13:51:45;;;;;;;76.60;52.30;;;6.70;99.90;;;;;;5030127;28;20502;-70
2022/01/22 13:54:12;;;;;;;79.60;53.17;;;6.70;99.90;;;;;;5055722;28;20457;-70
2022/01/22 13:56:47;;;;;;;88.50;52.17;;;6.60;99.90;;;;;;5032702;28;20482;-69
2022/01/22 13:59:15;;;;;;;79.47;54.77;;;6.60;99.90;;;;;;5031854;28;20497;-70
2022/01/22 14:01:50;;;;;;;77.70;53.33;;;6.50;99.90;;;;;;5031450;28;20764;-70
2022/01/22 14:04:18;;;;;;;73.20;54.13;;;6.60;99.90;;;;;;5032377;28;20944;-70
2022/01/22 14:06:47;;;;;;;74.27;52.67;;;6.70;99.90;;;;;;5031853;28;20467;-70
2022/01/22 14:09:16;;;;;;;74.20;55.03;;;6.60;99.90;;;;;;5032281;28;21005;-70
2022/01/22 14:12:07;;;;;;;67.33;53.97;;;6.60;99.90;;;;;;5032058;28;20499;-70
2022/01/22 14:14:58;;;;;;;82.00;54.47;;;6.60;99.90;;;;;;5030243;28;20457;-70
2022/01/22 14:17:29;;;;;;;73.77;53.67;;;6.50;99.90;;;;;;5029617;28;20517;-70